Time;durP1;ratioP1;P1;durP2;ratioP2;P2;SDS_P1;SDS_P2;PMS_P1;PMS_P2;Temp;Humidity;BMP_temperature;BMP_pressure;BME280_temperature;BME280_humidity;BME280_pressure;Samples;Min_cycle;Max_cycle;Signal;HPM_P1;HPM_P2
2022/09/22 00:01:24;;;;;;;3.20;2.10;;;6.00;99.90;;;;;;4983119;28;20033;-59
2022/09/22 00:03:57;;;;;;;3.85;2.78;;;5.90;99.90;;;;;;4975784;28;20045;-59
2022/09/22 00:06:30;;;;;;;4.88;2.25;;;5.90;99.90;;;;;;4971083;28;20044;-59
2022/09/22 00:09:01;;;;;;;3.90;1.67;;;5.90;99.90;;;;;;4986635;28;20044;-59
2022/09/22 00:11:34;;;;;;;4.07;2.15;;;5.80;99.90;;;;;;4978583;28;20515;-59
2022/09/22 00:14:11;;;;;;;3.80;1.80;;;5.80;99.90;;;;;;4975695;28;20034;-59
2022/09/22 00:16:46;;;;;;;4.45;1.88;;;5.80;99.90;;;;;;4978282;28;20040;-59
2022/09/22 00:19:29;;;;;;;6.82;2.28;;;5.80;99.90;;;;;;4972423;28;20056;-59
2022/09/22 00:21:56;;;;;;;2.20;1.98;;;5.80;99.90;;;;;;4976672;28;20467;-57
2022/09/22 00:24:24;;;;;;;3.83;2.40;;;5.70;99.90;;;;;;4974206;28;20045;-59
2022/09/22 00:26:56;;;;;;;2.50;1.92;;;5.80;99.90;;;;;;4974522;28;20046;-59
2022/09/22 00:29:26;;;;;;;3.65;1.95;;;5.80;99.90;;;;;;4978516;28;20044;-59
2022/09/22 00:31:54;;;;;;;2.78;2.40;;;5.80;99.90;;;;;;4965705;28;20834;-60
2022/09/22 00:34:26;;;;;;;3.75;2.03;;;5.80;99.90;;;;;;4975859;28;20829;-59
2022/09/22 00:36:55;;;;;;;3.30;2.30;;;5.70;99.90;;;;;;4969257;28;20230;-58
2022/09/22 00:39:21;;;;;;;3.50;2.15;;;5.70;99.90;;;;;;4988079;28;20068;-59
2022/09/22 00:41:50;;;;;;;3.30;1.65;;;5.70;99.90;;;;;;4978827;28;20045;-60
2022/09/22 00:44:20;;;;;;;5.40;2.47;;;5.70;99.90;;;;;;4982947;28;20049;-59
2022/09/22 00:46:53;;;;;;;2.10;1.90;;;5.60;99.90;;;;;;4976678;28;20140;-59
2022/09/22 00:49:29;;;;;;;3.10;2.05;;;5.60;99.90;;;;;;4971199;28;20742;-59
2022/09/22 00:51:56;;;;;;;3.67;2.00;;;5.50;99.90;;;;;;4972257;28;20033;-59
2022/09/22 00:54:23;;;;;;;2.30;2.00;;;5.50;99.90;;;;;;4981829;28;20093;-58
2022/09/22 00:56:55;;;;;;;2.83;2.42;;;5.50;99.90;;;;;;4970935;28;20045;-59
2022/09/22 00:59:25;;;;;;;7.07;3.05;;;5.50;99.90;;;;;;4976977;28;20391;-59
2022/09/22 01:01:53;;;;;;;8.27;3.25;;;5.50;99.90;;;;;;4974245;28;20545;-59
2022/09/22 01:04:22;;;;;;;2.33;2.10;;;5.50;99.90;;;;;;4976045;28;20582;-59
2022/09/22 01:06:50;;;;;;;5.93;2.55;;;5.50;99.90;;;;;;4969979;28;20037;-58
2022/09/22 01:09:17;;;;;;;2.80;2.33;;;5.50;99.90;;;;;;4974739;28;20045;-58
2022/09/22 01:11:44;;;;;;;2.70;2.05;;;5.50;99.90;;;;;;4979183;28;20044;-58
2022/09/22 01:14:30;;;;;;;3.90;2.58;;;5.50;99.90;;;;;;4974561;28;20155;-59
2022/09/22 01:17:39;;;;;;;3.22;2.30;;;5.50;99.90;;;;;;4983727;28;20351;-59
2022/09/22 01:20:19;;;;;;;2.27;2.00;;;5.40;99.90;;;;;;4951428;28;20072;-59
2022/09/22 01:23:07;;;;;;;3.63;2.55;;;5.40;99.90;;;;;;4977037;28;20594;-59
2022/09/22 01:25:46;;;;;;;6.22;2.90;;;5.50;99.90;;;;;;4970933;28;20049;-59
2022/09/22 01:28:35;;;;;;;4.75;2.42;;;5.40;99.90;;;;;;4981343;28;20590;-58
2022/09/22 01:31:11;;;;;;;2.92;2.28;;;5.40;99.90;;;;;;4971064;28;20029;-58
2022/09/22 01:33:43;;;;;;;3.53;2.22;;;5.40;99.90;;;;;;4976605;28;20044;-59
2022/09/22 01:36:27;;;;;;;3.00;2.17;;;5.40;99.90;;;;;;4978364;28;20138;-58
2022/09/22 01:39:12;;;;;;;9.27;2.40;;;5.40;99.90;;;;;;4979968;28;20788;-59
2022/09/22 01:42:01;;;;;;;5.65;2.95;;;5.40;99.90;;;;;;4984648;28;20262;-59
2022/09/22 01:44:41;;;;;;;3.78;2.72;;;5.40;99.90;;;;;;4988243;28;20049;-58
2022/09/22 01:47:31;;;;;;;6.55;2.53;;;5.40;99.90;;;;;;4992875;28;20372;-59
2022/09/22 01:50:04;;;;;;;6.03;2.40;;;5.30;99.90;;;;;;4973389;28;20041;-59
2022/09/22 01:52:34;;;;;;;4.47;2.63;;;5.30;99.90;;;;;;4978331;28;20443;-59
2022/09/22 01:55:22;;;;;;;4.18;2.30;;;5.30;99.90;;;;;;4976471;28;20657;-59
2022/09/22 01:58:04;;;;;;;4.05;2.42;;;5.30;99.90;;;;;;4972724;28;20037;-59
2022/09/22 02:00:31;;;;;;;6.15;2.55;;;5.30;99.90;;;;;;4977233;28;20371;-58
2022/09/22 02:03:04;;;;;;;7.22;2.60;;;5.30;99.90;;;;;;4968353;28;20577;-58
2022/09/22 02:05:40;;;;;;;7.25;3.13;;;5.30;99.90;;;;;;4980925;28;20045;-59
2022/09/22 02:08:13;;;;;;;4.95;2.65;;;5.30;99.90;;;;;;4980245;28;20554;-59
2022/09/22 02:10:44;;;;;;;4.57;3.10;;;5.30;99.90;;;;;;4973003;28;20210;-58
2022/09/22 02:13:11;;;;;;;5.97;2.80;;;5.30;99.90;;;;;;4977732;28;20043;-59
2022/09/22 02:18:29;;;;;;;3.67;2.58;;;5.20;99.90;;;;;;4980431;28;20447;-59
2022/09/22 02:20:56;;;;;;;6.35;3.08;;;5.10;99.90;;;;;;4984590;28;20049;-58
2022/09/22 02:23:23;;;;;;;6.10;3.22;;;5.10;99.90;;;;;;4975375;28;20142;-59
2022/09/22 02:25:52;;;;;;;9.77;4.93;;;5.00;99.90;;;;;;4975196;28;20455;-59
2022/09/22 02:28:22;;;;;;;4.63;3.10;;;5.00;99.90;;;;;;4981224;28;20569;-58
2022/09/22 02:30:53;;;;;;;6.85;3.13;;;4.90;99.90;;;;;;4973127;28;20037;-59
2022/09/22 02:33:41;;;;;;;3.38;2.17;;;4.90;99.90;;;;;;4974748;28;20041;-59
2022/09/22 02:36:49;;;;;;;5.35;2.47;;;4.90;99.90;;;;;;4976482;28;20061;-58
2022/09/22 02:39:26;;;;;;;4.47;2.92;;;4.90;99.90;;;;;;4976890;28;20104;-58
2022/09/22 02:41:52;;;;;;;3.17;2.23;;;4.90;99.90;;;;;;4975902;28;20198;-58
2022/09/22 02:44:52;;;;;;;3.03;2.60;;;4.90;99.90;;;;;;4978459;28;21102;-59
2022/09/22 02:47:31;;;;;;;3.28;2.53;;;4.90;99.90;;;;;;4953092;28;20103;-59
2022/09/22 02:49:59;;;;;;;4.13;2.60;;;4.90;99.90;;;;;;5004109;28;20037;-59
2022/09/22 02:52:26;;;;;;;6.03;2.92;;;4.90;99.90;;;;;;4984908;28;20405;-58
2022/09/22 02:54:54;;;;;;;3.47;2.10;;;4.90;99.90;;;;;;4981660;28;20038;-62
2022/09/22 02:57:22;;;;;;;2.83;2.40;;;4.90;99.90;;;;;;4960405;28;20048;-59
2022/09/22 02:59:49;;;;;;;5.57;2.78;;;4.90;99.90;;;;;;4980924;28;20569;-59
2022/09/22 03:02:16;;;;;;;2.28;2.08;;;4.90;99.90;;;;;;4975633;28;20816;-58
2022/09/22 03:04:43;;;;;;;3.65;2.70;;;4.90;99.90;;;;;;4959141;28;20044;-59
2022/09/22 03:07:10;;;;;;;3.88;2.88;;;4.90;99.90;;;;;;4976756;28;20110;-59
2022/09/22 03:09:38;;;;;;;3.33;2.97;;;4.90;99.90;;;;;;4970271;28;20152;-60
2022/09/22 03:12:05;;;;;;;3.10;2.50;;;4.90;99.90;;;;;;4974891;28;20091;-59
2022/09/22 03:14:32;;;;;;;3.13;2.42;;;4.80;99.90;;;;;;4980206;28;20084;-59
2022/09/22 03:16:58;;;;;;;;;;;4.80;99.90;;;;;;4975015;28;20049;-58
2022/09/22 03:19:26;;;;;;;9.20;2.85;;;4.70;99.90;;;;;;4974030;28;20348;-59
2022/09/22 03:21:53;;;;;;;4.68;2.15;;;4.70;99.90;;;;;;4974562;28;20382;-61
2022/09/22 03:24:21;;;;;;;5.35;2.78;;;4.70;99.90;;;;;;4971725;28;20037;-59
2022/09/22 03:26:48;;;;;;;5.53;2.55;;;4.70;99.90;;;;;;4978056;28;20578;-59
2022/09/22 03:29:15;;;;;;;;;;;4.60;99.90;;;;;;4976296;28;20043;-58
2022/09/22 03:31:42;;;;;;;3.10;2.35;;;4.60;99.90;;;;;;4984904;28;20113;-59
2022/09/22 03:34:09;;;;;;;;;;;4.60;99.90;;;;;;4976323;28;20582;-59
2022/09/22 03:36:36;;;;;;;9.65;3.00;;;4.50;99.90;;;;;;4977410;28;19924;-58
2022/09/22 03:39:02;;;;;;;;;;;4.50;99.90;;;;;;4982141;28;20205;-59
2022/09/22 03:41:30;;;;;;;7.82;3.10;;;4.50;99.90;;;;;;4972047;28;19924;-58
2022/09/22 03:43:57;;;;;;;4.63;3.38;;;4.50;99.90;;;;;;4980860;28;20376;-60
2022/09/22 03:46:25;;;;;;;5.97;3.80;;;4.50;99.90;;;;;;4977577;28;20849;-59
2022/09/22 03:48:52;;;;;;;3.38;2.92;;;4.50;99.90;;;;;;4977429;28;20998;-59
2022/09/22 03:51:19;;;;;;;4.53;2.80;;;4.60;99.90;;;;;;4968427;28;20849;-58
2022/09/22 03:53:46;;;;;;;3.83;3.25;;;4.60;99.90;;;;;;4971744;28;20050;-60
2022/09/22 03:56:19;;;;;;;4.65;3.05;;;4.60;99.90;;;;;;4975009;28;20045;-58
2022/09/22 03:58:46;;;;;;;8.82;3.33;;;4.70;99.90;;;;;;4977622;28;20818;-58
2022/09/22 04:01:13;;;;;;;;;;;4.70;99.90;;;;;;4984340;28;20882;-58
2022/09/22 04:03:41;;;;;;;5.15;3.55;;;4.80;99.90;;;;;;4977504;28;20821;-58
2022/09/22 04:06:09;;;;;;;4.45;3.20;;;4.90;99.90;;;;;;4974704;28;20205;-59
2022/09/22 04:08:36;;;;;;;4.85;2.92;;;4.90;99.90;;;;;;4977369;28;20057;-59
2022/09/22 04:11:04;;;;;;;9.40;3.67;;;5.00;99.90;;;;;;4974061;28;20034;-63
2022/09/22 04:13:31;;;;;;;4.22;2.95;;;5.10;99.90;;;;;;4984192;28;20064;-54
2022/09/22 04:15:58;;;;;;;5.28;3.30;;;5.10;99.90;;;;;;4975756;28;20041;-60
2022/09/22 04:18:25;;;;;;;5.07;3.10;;;5.20;99.90;;;;;;4973690;28;20041;-58
2022/09/22 04:20:56;;;;;;;4.78;3.33;;;5.20;99.90;;;;;;4972527;28;20045;-59
2022/09/22 04:23:25;;;;;;;6.18;4.30;;;5.30;99.90;;;;;;4974997;28;20719;-60
2022/09/22 04:25:52;;;;;;;8.63;3.60;;;5.30;99.90;;;;;;4977682;28;20144;-59
2022/09/22 04:28:19;;;;;;;10.10;3.78;;;5.40;99.90;;;;;;4982456;28;20734;-59
2022/09/22 04:30:47;;;;;;;3.38;2.92;;;5.40;99.90;;;;;;4969244;28;20033;-59
2022/09/22 04:33:14;;;;;;;5.70;3.20;;;5.50;99.90;;;;;;4974151;28;20187;-59
2022/09/22 04:35:42;;;;;;;4.78;3.35;;;5.60;99.90;;;;;;4972508;28;20252;-60
2022/09/22 04:38:09;;;;;;;3.35;2.42;;;5.60;99.90;;;;;;4978306;28;20774;-59
2022/09/22 04:40:37;;;;;;;2.60;2.40;;;5.60;99.90;;;;;;4973794;28;20056;-59
2022/09/22 04:43:04;;;;;;;3.67;2.90;;;5.60;99.90;;;;;;4958649;28;20119;-59
2022/09/22 04:45:31;;;;;;;3.55;3.08;;;5.70;99.90;;;;;;4977979;28;20550;-60
2022/09/22 04:48:05;;;;;;;5.88;2.85;;;5.70;99.90;;;;;;4981524;28;20056;-59
2022/09/22 04:50:31;;;;;;;;;;;5.70;99.90;;;;;;4987691;28;20134;-59
2022/09/22 04:53:05;;;;;;;6.95;2.78;;;5.70;99.90;;;;;;4976665;28;19925;-60
2022/09/22 04:55:33;;;;;;;5.80;3.40;;;5.70;99.90;;;;;;4972199;28;20632;-58
2022/09/22 04:58:00;;;;;;;3.90;3.22;;;5.80;99.90;;;;;;4972569;28;20302;-60
2022/09/22 05:00:28;;;;;;;5.88;3.47;;;5.80;99.90;;;;;;4973027;28;20038;-58
2022/09/22 05:02:56;;;;;;;5.57;3.00;;;5.80;99.90;;;;;;4976302;28;20049;-58
2022/09/22 05:05:23;;;;;;;4.55;3.35;;;5.90;99.90;;;;;;4974691;28;20036;-57
2022/09/22 05:07:54;;;;;;;5.35;3.15;;;5.90;99.90;;;;;;4982999;28;20060;-59
2022/09/22 05:10:24;;;;;;;6.18;3.95;;;5.90;99.90;;;;;;4989066;28;20570;-56
2022/09/22 05:12:52;;;;;;;8.10;4.15;;;5.90;99.90;;;;;;4968585;28;20437;-56
2022/09/22 05:15:21;;;;;;;7.22;4.03;;;6.00;99.90;;;;;;4981346;28;20190;-59
2022/09/22 05:17:53;;;;;;;7.25;4.38;;;6.00;99.90;;;;;;4974976;28;20096;-56
2022/09/22 05:20:20;;;;;;;9.75;5.68;;;6.00;99.90;;;;;;4961689;28;20045;-57
2022/09/22 05:22:48;;;;;;;9.48;6.15;;;6.00;99.90;;;;;;4976736;28;20386;-56
2022/09/22 05:25:18;;;;;;;19.25;7.45;;;6.00;99.90;;;;;;4969927;28;20907;-56
2022/09/22 05:27:53;;;;;;;10.48;6.97;;;6.10;99.90;;;;;;4974800;28;20042;-55
2022/09/22 05:30:23;;;;;;;9.90;6.57;;;6.10;99.90;;;;;;4972366;28;20612;-58
2022/09/22 05:32:50;;;;;;;11.85;7.30;;;6.10;99.90;;;;;;4973108;28;20236;-58
2022/09/22 05:35:19;;;;;;;14.73;9.32;;;6.10;99.90;;;;;;4978398;28;20074;-56
2022/09/22 05:37:48;;;;;;;15.25;8.55;;;6.10;99.90;;;;;;4973410;28;20038;-56
2022/09/22 05:40:16;;;;;;;21.65;11.10;;;6.10;99.90;;;;;;4978654;28;20045;-56
2022/09/22 05:42:46;;;;;;;13.32;8.50;;;6.10;99.90;;;;;;4984619;28;20150;-56
2022/09/22 05:45:14;;;;;;;15.63;8.88;;;6.10;99.90;;;;;;4983393;28;20352;-55
2022/09/22 05:47:42;;;;;;;13.77;8.30;;;6.10;99.90;;;;;;4971847;28;20037;-56
2022/09/22 05:50:11;;;;;;;13.45;8.35;;;6.10;99.90;;;;;;4981555;28;20049;-55
2022/09/22 05:52:38;;;;;;;16.63;8.98;;;6.10;99.90;;;;;;4975745;28;20079;-56
2022/09/22 05:55:06;;;;;;;14.85;8.93;;;6.10;99.90;;;;;;4974607;28;20045;-55
2022/09/22 05:57:34;;;;;;;17.33;9.25;;;6.20;99.90;;;;;;4970074;28;20041;-56
2022/09/22 06:00:01;;;;;;;15.80;9.05;;;6.20;99.90;;;;;;4964875;28;20624;-54
2022/09/22 06:02:37;;;;;;;13.65;8.05;;;6.20;99.90;;;;;;4975871;28;20695;-55
2022/09/22 06:05:04;;;;;;;17.77;9.68;;;6.20;99.90;;;;;;4975319;28;20538;-56
2022/09/22 06:07:31;;;;;;;15.85;10.35;;;6.20;99.90;;;;;;4977936;28;20152;-57
2022/09/22 06:09:58;;;;;;;19.65;10.25;;;6.20;99.90;;;;;;4973779;28;20045;-61
2022/09/22 06:12:25;;;;;;;19.40;10.10;;;6.30;99.90;;;;;;4974976;28;20071;-58
2022/09/22 06:14:52;;;;;;;19.38;10.48;;;6.30;99.90;;;;;;4973449;28;20098;-60
2022/09/22 06:17:19;;;;;;;12.65;8.05;;;6.30;99.90;;;;;;4973255;28;20033;-57
2022/09/22 06:19:49;;;;;;;10.65;6.70;;;6.40;99.90;;;;;;4972625;28;20042;-57
2022/09/22 06:22:16;;;;;;;13.40;8.10;;;6.50;99.90;;;;;;4976580;28;20945;-60
2022/09/22 06:24:43;;;;;;;11.50;6.55;;;6.60;99.90;;;;;;4968878;28;20330;-57
2022/09/22 06:27:10;;;;;;;13.07;8.00;;;6.70;99.90;;;;;;4981154;28;20243;-58
2022/09/22 06:29:37;;;;;;;12.77;8.27;;;6.80;99.90;;;;;;4983547;28;20402;-57
2022/09/22 06:32:08;;;;;;;10.65;7.30;;;6.90;99.90;;;;;;4969343;28;20033;-59
2022/09/22 06:34:36;;;;;;;12.02;7.15;;;7.10;99.90;;;;;;4969692;28;20391;-57
2022/09/22 06:37:07;;;;;;;14.10;8.23;;;7.10;99.90;;;;;;4969705;28;20333;-58
2022/09/22 06:39:37;;;;;;;12.60;8.60;;;7.10;99.90;;;;;;4982900;28;20193;-57
2022/09/22 06:42:04;;;;;;;13.60;9.45;;;7.10;99.90;;;;;;4971472;28;20045;-57
2022/09/22 06:44:32;;;;;;;12.70;8.98;;;7.10;99.90;;;;;;4980525;28;20240;-58
2022/09/22 06:47:04;;;;;;;14.80;9.68;;;7.10;99.90;;;;;;4972912;28;20041;-57
2022/09/22 06:49:31;;;;;;;15.30;9.68;;;7.10;99.90;;;;;;4971966;28;20640;-57
2022/09/22 06:51:58;;;;;;;11.30;8.75;;;7.10;99.90;;;;;;4974758;28;20241;-57
2022/09/22 06:54:25;;;;;;;17.52;9.45;;;7.00;99.90;;;;;;4967551;28;20401;-57
2022/09/22 06:56:52;;;;;;;17.27;10.73;;;7.10;99.90;;;;;;4971759;28;20045;-58
2022/09/22 06:59:19;;;;;;;29.67;12.18;;;7.10;99.90;;;;;;4979270;28;20575;-58
2022/09/22 07:01:47;;;;;;;14.32;11.15;;;7.10;99.90;;;;;;4969065;28;20057;-58
2022/09/22 07:04:14;;;;;;;24.88;13.18;;;7.10;99.90;;;;;;4966260;28;20187;-59
2022/09/22 07:06:42;;;;;;;22.45;14.18;;;7.10;99.90;;;;;;4974392;28;20081;-57
2022/09/22 07:09:09;;;;;;;20.98;13.27;;;7.10;99.90;;;;;;4973699;28;20877;-58
2022/09/22 07:11:36;;;;;;;17.42;12.52;;;7.10;99.90;;;;;;4975452;28;20048;-54
2022/09/22 07:14:07;;;;;;;18.00;13.13;;;7.20;99.90;;;;;;4972068;28;20041;-56
2022/09/22 07:16:35;;;;;;;25.08;15.35;;;7.30;99.90;;;;;;4972713;28;20033;-58
2022/09/22 07:19:04;;;;;;;22.23;13.98;;;7.40;99.90;;;;;;4966379;28;20604;-58
2022/09/22 07:21:34;;;;;;;22.63;13.02;;;7.50;99.90;;;;;;4971333;28;20040;-58
2022/09/22 07:24:02;;;;;;;17.80;12.35;;;7.50;99.90;;;;;;4976182;28;20242;-58
2022/09/22 07:26:32;;;;;;;22.25;13.77;;;7.60;99.90;;;;;;4977494;28;20202;-59
2022/09/22 07:29:04;;;;;;;22.52;13.50;;;7.70;99.90;;;;;;4974057;28;20290;-58
2022/09/22 07:31:33;;;;;;;26.58;16.70;;;7.80;99.90;;;;;;4975249;28;20206;-58
2022/09/22 07:34:00;;;;;;;19.33;14.32;;;7.90;99.90;;;;;;4972357;28;20038;-61
2022/09/22 07:36:30;;;;;;;22.67;16.05;;;8.00;99.90;;;;;;4976059;28;20041;-59
2022/09/22 07:39:03;;;;;;;23.92;14.00;;;8.10;99.90;;;;;;4975657;28;20407;-58
2022/09/22 07:41:40;;;;;;;22.88;14.65;;;8.20;99.90;;;;;;4980606;28;20257;-59
2022/09/22 07:46:55;;;;;;;20.27;14.30;;;8.40;99.90;;;;;;4984414;28;20049;-57
2022/09/22 07:49:22;;;;;;;18.35;13.70;;;8.50;99.90;;;;;;4975582;28;20052;-59
2022/09/22 07:51:53;;;;;;;15.45;11.18;;;8.60;99.90;;;;;;4973964;28;20927;-59
2022/09/22 07:54:21;;;;;;;13.38;10.30;;;8.70;99.90;;;;;;4977675;28;20848;-58
2022/09/22 07:56:50;;;;;;;19.00;13.23;;;8.70;99.90;;;;;;4976889;28;20708;-60
2022/09/22 07:59:17;;;;;;;17.75;12.25;;;8.80;99.90;;;;;;4983747;28;20546;-60
2022/09/22 08:01:47;;;;;;;13.88;10.48;;;9.00;99.90;;;;;;4972601;28;20278;-58
2022/09/22 08:04:19;;;;;;;14.45;10.80;;;9.00;99.90;;;;;;4938190;28;20084;-58
2022/09/22 08:06:50;;;;;;;14.30;10.20;;;9.10;99.90;;;;;;4972240;28;20093;-58
2022/09/22 08:09:18;;;;;;;15.88;9.43;;;9.30;99.90;;;;;;4979005;28;20041;-58
2022/09/22 08:11:47;;;;;;;12.52;9.70;;;9.50;99.90;;;;;;4979364;28;20442;-61
2022/09/22 08:14:16;;;;;;;14.40;9.50;;;9.70;99.90;;;;;;4971771;28;20247;-58
2022/09/22 08:16:44;;;;;;;15.25;10.65;;;9.80;99.90;;;;;;4977359;28;20056;-59
2022/09/22 08:19:12;;;;;;;11.45;9.25;;;9.90;99.90;;;;;;4972394;28;20530;-58
2022/09/22 08:21:42;;;;;;;16.25;10.82;;;10.10;99.90;;;;;;4972891;28;20045;-54
2022/09/22 08:24:21;;;;;;;20.48;10.20;;;10.20;99.90;;;;;;4976363;28;20081;-55
2022/09/22 08:26:51;;;;;;;9.70;8.25;;;10.40;99.90;;;;;;4979830;28;20134;-57
2022/09/22 08:29:19;;;;;;;11.77;7.75;;;10.50;99.90;;;;;;4980543;28;20046;-54
2022/09/22 08:31:46;;;;;;;12.52;8.43;;;10.70;99.90;;;;;;4982291;28;20079;-56
2022/09/22 08:34:15;;;;;;;12.95;9.07;;;11.00;99.90;;;;;;4976721;28;20045;-57
2022/09/22 08:36:45;;;;;;;12.52;9.45;;;11.50;99.90;;;;;;4973414;28;20583;-57
2022/09/22 08:39:14;;;;;;;9.80;7.20;;;12.10;99.90;;;;;;4968556;28;20144;-59
2022/09/22 08:42:21;;;;;;;10.63;8.25;;;12.60;99.90;;;;;;4976402;28;20570;-58
2022/09/22 08:45:00;;;;;;;13.48;7.20;;;13.20;99.90;;;;;;4969795;28;20904;-57
2022/09/22 08:54:00;;;;;;;11.65;6.03;;;15.00;99.90;;;;;;4978170;28;20203;-60
2022/09/22 08:56:42;;;;;;;7.72;5.53;;;15.50;99.90;;;;;;4991028;28;20203;-59
2022/09/22 08:59:22;;;;;;;9.90;5.30;;;15.90;99.90;;;;;;4974238;28;20381;-59
2022/09/22 09:02:31;;;;;;;8.13;5.38;;;16.30;99.90;;;;;;4980035;28;20562;-58
2022/09/22 09:05:22;;;;;;;7.32;4.80;;;16.50;99.90;;;;;;4975850;28;20055;-59
2022/09/22 09:08:17;;;;;;;5.53;4.75;;;16.70;99.90;;;;;;4981787;28;20500;-60
2022/09/22 09:10:52;;;;;;;6.60;5.20;;;16.80;99.90;;;;;;4978373;28;20033;-60
2022/09/22 09:13:31;;;;;;;8.02;5.25;;;16.90;99.90;;;;;;4976023;28;20042;-59
2022/09/22 09:16:24;;;;;;;8.00;4.55;;;17.10;99.90;;;;;;4974580;28;20033;-59
2022/09/22 09:19:17;;;;;;;7.13;4.80;;;17.30;99.90;;;;;;4974469;28;20197;-60
2022/09/22 09:21:50;;;;;;;7.57;4.55;;;17.40;99.90;;;;;;4976920;28;20041;-58
2022/09/22 09:24:33;;;;;;;6.60;4.97;;;17.40;99.90;;;;;;4988765;28;20056;-58
2022/09/22 09:27:23;;;;;;;5.32;4.80;;;17.50;99.90;;;;;;4998753;28;20056;-56
2022/09/22 09:30:07;;;;;;;11.35;5.28;;;17.60;99.90;;;;;;4994407;28;20955;-57
2022/09/22 09:32:59;;;;;;;8.00;5.10;;;17.70;99.90;;;;;;4992197;28;20631;-56
2022/09/22 09:35:43;;;;;;;9.50;4.28;;;17.90;99.90;;;;;;4983256;28;20111;-59
2022/09/22 09:38:25;;;;;;;6.45;4.70;;;18.20;99.90;;;;;;4968856;28;20057;-59
2022/09/22 09:41:16;;;;;;;4.55;3.40;;;18.50;99.60;;;;;;4982793;28;20325;-59
2022/09/22 09:43:44;;;;;;;5.13;4.03;;;18.70;97.80;;;;;;4973495;28;20203;-59
2022/09/22 09:46:28;;;;;;;5.88;4.10;;;18.90;96.20;;;;;;4973927;28;20045;-60
2022/09/22 09:49:08;;;;;;;10.68;4.68;;;19.10;94.30;;;;;;4972573;28;20195;-60
2022/09/22 09:51:37;;;;;;;12.52;4.90;;;19.30;92.50;;;;;;4981816;28;20105;-61
2022/09/22 09:54:08;;;;;;;6.20;3.88;;;19.40;93.50;;;;;;4981344;28;20053;-60
2022/09/22 09:57:15;;;;;;;8.43;4.57;;;19.50;93.60;;;;;;4984361;28;20044;-61
2022/09/22 10:02:49;;;;;;;4.87;3.33;;;19.80;91.00;;;;;;4972839;28;20041;-60
2022/09/22 10:05:16;;;;;;;4.93;3.97;;;19.80;87.50;;;;;;4972559;28;20052;-60
2022/09/22 10:07:47;;;;;;;5.65;4.18;;;19.90;82.30;;;;;;4974205;28;20060;-61
2022/09/22 10:10:32;;;;;;;7.85;4.78;;;19.70;80.80;;;;;;4978143;28;20584;-60
2022/09/22 10:13:02;;;;;;;5.15;4.57;;;19.60;82.60;;;;;;4975030;28;20246;-60
2022/09/22 10:15:35;;;;;;;5.97;4.25;;;19.50;84.20;;;;;;4972026;28;20837;-61
2022/09/22 10:18:23;;;;;;;8.30;4.25;;;19.40;81.90;;;;;;4979535;28;20040;-60
2022/09/22 10:21:14;;;;;;;10.20;4.57;;;19.40;81.30;;;;;;4977081;28;20056;-60
2022/09/22 10:23:52;;;;;;;5.75;3.95;;;19.30;82.80;;;;;;4976804;28;20037;-57
2022/09/22 10:26:21;;;;;;;7.20;3.85;;;19.30;90.60;;;;;;4978434;28;20222;-58
2022/09/22 10:29:13;;;;;;;4.65;4.05;;;19.50;85.90;;;;;;4972039;28;20557;-57
2022/09/22 10:31:42;;;;;;;6.88;3.97;;;19.70;86.90;;;;;;4971415;28;20657;-57
2022/09/22 10:34:31;;;;;;;5.53;2.97;;;19.80;82.20;;;;;;4968314;28;20037;-58
2022/09/22 10:37:00;;;;;;;4.80;3.08;;;20.00;85.20;;;;;;4974386;28;20064;-58
2022/09/22 10:39:50;;;;;;;5.38;3.85;;;20.10;82.30;;;;;;4969154;28;20140;-60
2022/09/22 10:42:39;;;;;;;4.53;3.85;;;20.20;79.80;;;;;;4968758;28;20588;-60
2022/09/22 10:45:14;;;;;;;4.93;3.67;;;20.30;84.80;;;;;;4974063;28;20265;-60
2022/09/22 10:47:50;;;;;;;8.55;3.85;;;20.40;81.90;;;;;;4976379;28;20065;-61
2022/09/22 10:50:37;;;;;;;6.10;3.70;;;20.40;79.70;;;;;;4973510;28;20828;-61
2022/09/22 10:53:26;;;;;;;8.18;3.63;;;20.40;80.10;;;;;;4972914;28;20304;-60
2022/09/22 10:56:12;;;;;;;5.97;3.63;;;20.50;78.70;;;;;;4968036;28;20803;-60
2022/09/22 10:59:14;;;;;;;6.07;3.45;;;20.60;78.90;;;;;;4971241;28;20826;-59
2022/09/22 11:02:17;;;;;;;8.90;4.20;;;20.70;75.60;;;;;;4965101;28;20045;-60
2022/09/22 11:14:58;;;;;;;13.20;3.65;;;20.70;75.20;;;;;;4966094;28;20278;-59
2022/09/22 11:17:53;;;;;;;5.50;3.78;;;20.80;74.60;;;;;;4951220;28;20294;-60
2022/09/22 11:20:35;;;;;;;7.90;3.28;;;20.90;77.30;;;;;;4985982;28;20375;-60
2022/09/22 11:23:21;;;;;;;5.57;3.30;;;21.10;73.90;;;;;;4972175;28;20051;-61
2022/09/22 11:26:04;;;;;;;3.47;3.17;;;21.30;71.50;;;;;;4983536;28;20049;-60
2022/09/22 11:29:09;;;;;;;7.18;3.08;;;21.40;72.40;;;;;;4975807;28;20272;-61
2022/09/22 11:31:45;;;;;;;8.05;3.38;;;21.40;72.90;;;;;;4967669;28;20304;-60
2022/09/22 11:34:12;;;;;;;6.93;3.78;;;21.50;70.70;;;;;;4976541;28;20041;-59
2022/09/22 11:36:45;;;;;;;10.43;4.72;;;21.40;69.00;;;;;;4980794;28;20033;-60
2022/09/22 11:39:47;;;;;;;7.38;3.50;;;21.40;70.00;;;;;;4976039;28;20793;-58
2022/09/22 11:42:28;;;;;;;4.30;3.47;;;21.40;68.20;;;;;;4972364;28;20044;-60
2022/09/22 11:45:20;;;;;;;6.28;3.95;;;21.50;69.90;;;;;;4975949;28;20627;-60
2022/09/22 11:48:18;;;;;;;7.32;3.22;;;21.60;70.10;;;;;;4972384;28;20608;-60
2022/09/22 11:51:17;;;;;;;5.72;3.50;;;21.70;69.90;;;;;;4978720;28;20585;-60
2022/09/22 11:53:52;;;;;;;3.35;2.75;;;21.80;66.20;;;;;;4977254;28;20998;-60
2022/09/22 11:56:24;;;;;;;4.63;3.67;;;21.80;67.90;;;;;;4977949;28;20868;-58
2022/09/22 11:58:54;;;;;;;6.53;3.60;;;21.70;65.90;;;;;;4982146;28;20271;-59
2022/09/22 12:01:28;;;;;;;6.43;4.10;;;21.70;67.00;;;;;;4970901;28;20317;-60
2022/09/22 12:04:10;;;;;;;7.80;3.72;;;21.70;65.60;;;;;;4978279;28;20042;-60
2022/09/22 12:06:41;;;;;;;7.65;3.78;;;21.60;64.20;;;;;;4980692;28;20049;-57
2022/09/22 12:09:31;;;;;;;4.35;3.63;;;21.70;65.70;;;;;;4985715;28;20144;-60
2022/09/22 12:12:05;;;;;;;5.25;3.40;;;21.80;65.00;;;;;;4969351;28;20049;-59
2022/09/22 12:14:33;;;;;;;6.55;3.95;;;21.90;64.20;;;;;;4978710;28;20033;-57
2022/09/22 12:17:21;;;;;;;5.03;3.40;;;21.80;64.00;;;;;;4974740;28;20056;-56
2022/09/22 12:20:14;;;;;;;4.13;3.38;;;21.80;64.80;;;;;;4977406;28;20856;-56
2022/09/22 12:23:04;;;;;;;7.45;3.58;;;21.90;64.10;;;;;;4946945;28;20543;-57
2022/09/22 12:25:53;;;;;;;3.17;2.88;;;22.00;62.50;;;;;;4964928;28;20624;-56
2022/09/22 12:28:29;;;;;;;8.43;4.47;;;22.00;63.00;;;;;;4976588;28;20036;-57
2022/09/22 12:31:09;;;;;;;5.60;3.33;;;22.00;63.20;;;;;;4971285;28;20140;-57
2022/09/22 12:33:38;;;;;;;6.13;3.13;;;21.80;61.30;;;;;;4976818;28;20784;-60
2022/09/22 12:36:06;;;;;;;5.22;3.42;;;21.90;63.70;;;;;;4980578;28;20882;-59
2022/09/22 12:38:33;;;;;;;11.18;3.50;;;22.00;61.60;;;;;;4980661;28;20107;-59
2022/09/22 12:41:03;;;;;;;4.65;3.45;;;22.10;64.20;;;;;;4969625;28;20049;-60
2022/09/22 12:43:32;;;;;;;6.57;3.10;;;22.10;63.30;;;;;;4972051;28;20037;-60
2022/09/22 12:46:49;;;;;;;6.60;3.58;;;22.20;64.20;;;;;;4975756;28;20345;-60
2022/09/22 12:53:27;;;;;;;6.00;3.92;;;22.10;61.40;;;;;;4973965;28;20681;-59
2022/09/22 12:55:56;;;;;;;6.05;3.67;;;22.10;62.40;;;;;;4979881;28;20308;-60
2022/09/22 12:58:22;;;;;;;5.90;2.65;;;22.10;61.20;;;;;;4969378;28;20265;-60
2022/09/22 13:00:55;;;;;;;6.93;3.72;;;22.20;61.30;;;;;;4981071;28;20061;-59
2022/09/22 13:03:38;;;;;;;3.50;3.05;;;22.30;58.70;;;;;;4972360;28;20044;-61
2022/09/22 13:06:20;;;;;;;4.93;3.35;;;22.30;58.00;;;;;;4974380;28;20318;-57
2022/09/22 13:08:47;;;;;;;3.42;2.58;;;22.40;57.40;;;;;;4973117;28;20049;-60
2022/09/22 13:11:14;;;;;;;6.05;2.85;;;22.40;57.70;;;;;;4980429;28;20049;-59
2022/09/22 13:13:42;;;;;;;4.25;2.88;;;22.50;56.90;;;;;;4973995;28;20276;-59
2022/09/22 13:16:15;;;;;;;7.28;2.88;;;22.50;56.90;;;;;;4981188;28;20036;-60
2022/09/22 13:18:52;;;;;;;3.13;2.20;;;22.30;55.50;;;;;;4977592;28;20060;-60
2022/09/22 13:21:28;;;;;;;3.15;1.77;;;22.10;56.10;;;;;;4970750;28;20044;-60
2022/09/22 13:24:02;;;;;;;6.35;1.83;;;22.00;57.20;;;;;;4973333;28;20041;-59
2022/09/22 13:26:38;;;;;;;6.55;1.98;;;22.00;56.20;;;;;;4971963;28;20199;-60
2022/09/22 13:29:12;;;;;;;6.25;2.35;;;22.00;55.80;;;;;;4983871;28;20048;-59
2022/09/22 13:31:43;;;;;;;3.47;1.83;;;22.00;54.40;;;;;;4975513;28;20045;-60
2022/09/22 13:34:34;;;;;;;5.25;2.40;;;21.80;54.70;;;;;;4975570;28;20397;-60
2022/09/22 13:37:13;;;;;;;3.78;2.53;;;21.60;54.80;;;;;;4979241;28;20048;-58
2022/09/22 13:39:43;;;;;;;5.50;2.50;;;21.60;55.90;;;;;;4976445;28;20037;-60
2022/09/22 13:42:18;;;;;;;4.97;2.45;;;21.60;56.30;;;;;;4981714;28;20051;-60
2022/09/22 13:45:08;;;;;;;3.33;2.00;;;21.60;55.90;;;;;;4969556;28;20049;-60
2022/09/22 13:47:36;;;;;;;4.05;2.08;;;21.50;58.00;;;;;;4970863;28;20052;-60
2022/09/22 13:50:11;;;;;;;7.75;2.75;;;21.50;56.90;;;;;;4968804;28;20213;-59
2022/09/22 13:52:39;;;;;;;8.35;2.88;;;21.50;56.80;;;;;;4971823;28;20740;-59
2022/09/22 13:55:36;;;;;;;4.93;2.60;;;21.50;56.80;;;;;;4970327;28;20792;-60